WetterOnline ( https://www.wetteronline.de )

Wetter aktuell Bönebüttel

Aktuelles Wetter: Dörnick (28m)

6-stündlich | Neueste Meldungen
Ortszeit Temperatur Wetter
Mo, 29.11. 19:00 0.6° C wolkig
Mo, 29.11. 13:00 3.7° C Sprühregen
Mo, 29.11. 7:00 1.1° C leichter Regen
Mo, 29.11. 1:00 0.5° C Nebel
So, 28.11. 19:00 1.7° C bedeckt
So, 28.11. 13:00 2.7° C Sprühregen
So, 28.11. 7:00 2.1° C leichter Regen
So, 28.11. 1:00 2.6° C Sprühregen
Ortszeit Temperatur Wetter
Mo, 29.11. 22:30 -0.4° C bewölkt
Mo, 29.11. 22:20 -0.4° C bewölkt
Mo, 29.11. 22:10 0.2° C bedeckt
Mo, 29.11. 22:00 0.6° C bedeckt
Mo, 29.11. 21:50 0.6° C bedeckt
Mo, 29.11. 21:40 0.7° C bedeckt
Mo, 29.11. 21:30 0.8° C bedeckt
Mo, 29.11. 21:00 0.9° C wolkig
Mo, 29.11. 20:30 0.9° C bedeckt
Mo, 29.11. 20:00 0.8° C bewölkt
Mo, 29.11. 19:30 0.8° C bewölkt
Ortszeit Relative Feuchte Sichtweite
Mo, 29.11. 19:00 93% 35 km
Mo, 29.11. 13:00 81% 40 km
Mo, 29.11. 7:00 96% 6 km
Mo, 29.11. 1:00 99% 1.0 km
So, 28.11. 19:00 96% 5.0 km
So, 28.11. 13:00 92% 16 km
So, 28.11. 7:00 94% 5.0 km
So, 28.11. 1:00 92% 10 km
Ortszeit Relative Feuchte Sichtweite
Mo, 29.11. 22:30 95% 11 km
Mo, 29.11. 22:20 95% -
Mo, 29.11. 22:10 94% -
Mo, 29.11. 22:00 92% -
Mo, 29.11. 21:50 92% -
Mo, 29.11. 21:40 92% -
Mo, 29.11. 21:30 92% 21 km
Mo, 29.11. 21:00 92% 21 km
Mo, 29.11. 20:30 92% 19 km
Mo, 29.11. 20:00 94% -
Mo, 29.11. 19:30 93% 25 km
Ortszeit Niederschlagsmenge Niederschlagsart
Mo, 29.11. 19:00 0.6 l/m2 in 12 Std. Regen
Mo, 29.11. 13:00 0.1 l/m2 in 6 Std. Regen
Mo, 29.11. 7:00 2 l/m2 in 12 Std. Schnee, Regen
Mo, 29.11. 1:00 0.1 l/m2 in 6 Std. Sprühregen
So, 28.11. 19:00 1 l/m2 in 12 Std. Regen
So, 28.11. 13:00 0.4 l/m2 in 6 Std. Regen
So, 28.11. 7:00 1 l/m2 in 12 Std. Regen
So, 28.11. 1:00 0.9 l/m2 in 6 Std. Regen
Ortszeit Niederschlagsmenge Niederschlagsart
Mo, 29.11. 22:30 0.0 l/m2 in 1 Std. -
Mo, 29.11. 22:20 keine Meldung -
Mo, 29.11. 22:10 keine Meldung -
Mo, 29.11. 22:00 0.0 l/m2 in 1 Std. -
Mo, 29.11. 21:50 keine Meldung -
Mo, 29.11. 21:40 keine Meldung -
Mo, 29.11. 21:30 0.0 l/m2 in 1 Std. -
Mo, 29.11. 21:00 0.0 l/m2 in 1 Std. -
Mo, 29.11. 20:30 0.0 l/m2 in 1 Std. -
Mo, 29.11. 20:00 0.0 l/m2 in 1 Std. -
Mo, 29.11. 19:30 0.0 l/m2 in 1 Std. -
Ortszeit Stärke Spitze Richtung
km/h Bft. km/h Grad Sektor
Mo, 29.11. 19:00 7 2 25 270° W
Mo, 29.11. 13:00 11 2 25 10° N
Mo, 29.11. 7:00 7 2 18 310° NW
Mo, 29.11. 1:00 9 2 19 280° W
So, 28.11. 19:00 11 2 22 280° W
So, 28.11. 13:00 13 3 24 290° W
So, 28.11. 7:00 7 2 18 230° SW
So, 28.11. 1:00 4 1 11 340° N
Ortszeit Stärke Spitze Richtung
km/h Bft. km/h Grad Sektor
Mo, 29.11. 22:30 4 1 11 210° SW
Mo, 29.11. 22:20 4 1 - 210° SW
Mo, 29.11. 22:10 7 2 - 230° SW
Mo, 29.11. 22:00 7 2 14 240° SW
Mo, 29.11. 21:50 7 2 - 240° SW
Mo, 29.11. 21:40 7 2 - 240° SW
Mo, 29.11. 21:30 7 2 14 250° W
Mo, 29.11. 21:00 11 2 14 250° W
Mo, 29.11. 20:30 9 2 15 250° W
Mo, 29.11. 20:00 7 2 11 270° W
Mo, 29.11. 19:30 9 2 11 260° W
Ortszeit Untergrenze Bedeckung Gattung
total tief tief mittel hoch
Mo, 29.11. 19:00 450 m 7/8 1/8 - - -
Mo, 29.11. 13:00 510 m 7/8 7/8 - - -
Mo, 29.11. 7:00 510 m 7/8 7/8 - - -
Mo, 29.11. 1:00 30 m 8/8 8/8 - - -
So, 28.11. 19:00 60 m 8/8 8/8 - - -
So, 28.11. 13:00 180 m 7/8 7/8 - - -
So, 28.11. 7:00 150 m 8/8 8/8 - - -
So, 28.11. 1:00 210 m 8/8 8/8 - - -
Ortszeit Bedeckungsgrad in Achtel und Wolkenuntergrenze
Mo, 29.11. 22:30 7(2700m) 7(3600m) 8(4800m)
Mo, 29.11. 22:20 7(2700m) 7(3600m) 8(4800m)
Mo, 29.11. 22:10 5(3000m) 8(4800m) 8(5400m)
Mo, 29.11. 22:00 8(3300m) 8(4500m) 8(5400m)
Mo, 29.11. 21:50 8(3300m) 8(4500m) 8(5400m)
Mo, 29.11. 21:40 8(3300m) 8(4500m) 8(5400m)
Mo, 29.11. 21:30 8(3300m)
Mo, 29.11. 21:00 3(1050m) 8(3600m)
Mo, 29.11. 20:30 8(3600m) 8(6300m)
Mo, 29.11. 20:00 7(1170m) 8(4200m) 8(4800m)
Mo, 29.11. 19:30 6(1170m) 7(4800m) 8(6000m)
Ortszeit Luftdruck NN (hPa) Tendenz (hPa in 3 Std.)
Mo, 29.11. 19:00 1007 + 0,5
Mo, 29.11. 13:00 1005 + 1,5
Mo, 29.11. 7:00 1001 + 1,5
Mo, 29.11. 1:00 998 + 0,8
So, 28.11. 19:00 997 + 1,2
So, 28.11. 13:00 995 + 0,3
So, 28.11. 7:00 994 + 0,3
So, 28.11. 1:00 993 - 0,1
Ortszeit Luftdruck NN (hPa) Tendenz (hPa in 3 Std.)
Mo, 29.11. 22:30 1007 - 1,0
Mo, 29.11. 22:20 1007 keine Meldung
Mo, 29.11. 22:10 1007 keine Meldung
Mo, 29.11. 22:00 1007 - 0,5
Mo, 29.11. 21:50 1007 keine Meldung
Mo, 29.11. 21:40 1007 keine Meldung
Mo, 29.11. 21:30 1007 - 0,2
Mo, 29.11. 21:00 1007 0,0
Mo, 29.11. 20:30 1007 0,0
Mo, 29.11. 20:00 1007 + 0,1
Mo, 29.11. 19:30 1008 + 0,5
Ortszeit Schneehöhe (cm)
Mo, 29.11. 19:00 0
Mo, 29.11. 13:00 0
Mo, 29.11. 7:00 0
Mo, 29.11. 1:00 0
So, 28.11. 19:00 0
So, 28.11. 13:00 0
So, 28.11. 7:00 0
So, 28.11. 1:00 0
Ortszeit Schneehöhe (cm)
Mo, 29.11. 22:30 0
Mo, 29.11. 22:20 0
Mo, 29.11. 22:10 0
Mo, 29.11. 22:00 0
Mo, 29.11. 21:50 0
Mo, 29.11. 21:40 0
Mo, 29.11. 21:30 0
Mo, 29.11. 21:00 0
Mo, 29.11. 20:30 0
Mo, 29.11. 20:00 0
Mo, 29.11. 19:30 0
Link zu dieser Seite / Seite empfehlen

Das Wetter in ...